• Join FlightAware (Why Join?)
  • Login
  • US Flag 
09:00PM EDT


 

Airport Tracker/Info


-or-


 

Live Flight TrackerFlight Track Log ✈ CTL13 ✈ 30-Jan-2014 ✈ KBUY - KRIC

Flight Track Log - Related Links

Times and Time Zones

All times are in EST time to prevent confusion due to time zone crossing. See the CTL13 flight status page for this flight to view local times or setup timezone preferences in your user account.

Time Position Orientation Groundspeed Altitude Reporting Facility
EST Latitude Longitude Course Direction KTS MPH feet Rate Location/Type
11:15PM 36.2014 -79.3500 29° Northeast 183 211 4,900  Level Washington Center
11:16PM 36.2397 -79.3236 29° Northeast 190 219 5,500 600 Climbing Washington Center
11:17PM 36.2869 -79.2872 32° Northeast 180 207 6,200 600 Climbing Washington Center
11:18PM 36.3211 -79.2578 35° Northeast 174 200 6,800 300 Climbing Washington Center
11:19PM 36.3016 -79.2695 29° Northeast  Level FlightAware Approximate
11:19PM 36.3683 -79.2189 34° Northeast 179 206 6,900  Level Washington Center
11:20PM 36.3453 -79.2393 29° Northeast  Level FlightAware Approximate
11:20PM 36.4092 -79.1769 40° Northeast 179 206 6,900  Level Washington Center
11:21PM 36.4356 -79.1342 53° Northeast 179 206 6,900  Level Washington Center
11:22PM 36.4750 -79.0661 54° Northeast 189 217 6,900  Level Washington Center
11:23PM 36.5078 -79.0158 51° Northeast 189 217 6,900  Level Washington Center
11:24PM 36.5406 -78.9631 52° Northeast 189 217 6,900  Level Washington Center
11:25PM 36.5733 -78.9050 55° Northeast 189 217 6,900  Level Washington Center
11:26PM 36.6061 -78.8519 52° Northeast 189 217 6,900  Level Washington Center
11:27PM 36.6389 -78.7992 52° Northeast 189 217 6,900  Level Washington Center
11:28PM 36.6739 -78.7383 54° Northeast 194 223 6,900  Level Washington Center
11:29PM 36.7044 -78.6825 56° Northeast 194 223 7,000  Climbing Washington Center
11:30PM 36.7392 -78.6294 51° Northeast 189 217 6,900 -60 Descending Washington Center
11:31PM 36.7700 -78.5736 55° Northeast 189 217 6,900  Level Washington Center
11:32PM 36.8022 -78.5283 48° Northeast 189 217 6,900  Level Washington Center
11:33PM 36.8350 -78.4725 54° Northeast 189 217 6,900  Level Washington Center
11:34PM 36.8694 -78.4219 50° Northeast 189 217 6,900  Level Washington Center
11:35PM 36.9000 -78.3658 56° Northeast 195 224 6,900  Level Washington Center
11:36PM 36.9347 -78.3100 52° Northeast 189 217 6,900  Level Washington Center
11:37PM 36.9694 -78.2486 55° Northeast 189 217 6,900  Level Washington Center
11:38PM 37.0042 -78.1953 51° Northeast 189 217 6,900  Level Washington Center
11:39PM 37.0322 -78.1442 55° Northeast 189 217 6,900  Level Washington Center
11:40PM 37.0667 -78.0906 51° Northeast 189 217 6,900  Level Washington Center
11:41PM 37.0992 -78.0344 54° Northeast 194 223 6,900  Level Washington Center
11:42PM 37.1317 -77.9833 51° Northeast 189 217 6,900  Level Washington Center
11:43PM 37.1661 -77.9272 52° Northeast 189 217 6,900 -60 Level Washington Center
11:44PM 37.1983 -77.8733 53° Northeast 189 217 6,800 -360 Descending Washington Center
11:45PM 37.2347 -77.8197 50° Northeast 189 217 6,200 -600 Descending Washington Center
11:47PM 37.3167 -77.7000 49° Northeast 222 255 5,100 -540 Descending Potomac TRACON
11:48PM 37.3500 -77.6333 58° Northeast 222 255 4,600 -540 Descending Potomac TRACON
11:49PM 37.3833 -77.6000 38° Northeast 222 255 4,200 -480 Descending Potomac TRACON
11:50PM 37.4333 -77.5667 28° Northeast 214 246 3,800 -240 Descending Potomac TRACON
11:51PM 37.5000 -77.5167 31° Northeast 198 228 3,800 -240 Level Potomac TRACON
11:52PM 37.5167 -77.4833 58° Northeast 193 222 3,400 -660 Descending Potomac TRACON
11:53PM 37.5500 -77.4167 58° Northeast 197 227 2,500 -660 Descending Potomac TRACON
11:54PM 37.5667 -77.3500 72° East 172 198 1,900 -540 Descending Potomac TRACON
11:55PM 37.5500 -77.3167 122° Southeast 153 176 1,400 -840 Descending Potomac TRACON
11:56PM 37.5333 -77.3167 180° South 113 130 400 -1,020 Descending Potomac TRACON
11:58PM 37.5000 -77.3167 180° South  Level FlightAware Approximate
12:05AM 37.5052 -77.3197 180° South  Level Estimated
12:06AM 37.5000 -77.3167 180° South  Level FlightAware Approximate